createdAt,value
2023-04-15T00:01:06.644Z,2.78
2023-04-15T00:03:33.358Z,2.88
2023-04-15T00:06:00.166Z,2.85
2023-04-15T00:08:26.773Z,2.97
2023-04-15T00:10:53.358Z,2.80
2023-04-15T00:13:19.862Z,2.50
2023-04-15T00:15:46.550Z,2.83
2023-04-15T00:18:13.063Z,3.00
2023-04-15T00:20:39.592Z,3.25
2023-04-15T00:23:06.097Z,2.88
2023-04-15T00:25:32.578Z,3.00
2023-04-15T00:27:59.127Z,3.17
2023-04-15T00:30:25.749Z,3.00
2023-04-15T00:32:52.410Z,2.75
2023-04-15T00:35:18.908Z,2.90
2023-04-15T00:37:46.344Z,3.28
2023-04-15T00:40:13.928Z,2.90
2023-04-15T00:42:40.916Z,3.17
2023-04-15T00:45:07.971Z,3.20
2023-04-15T00:47:36.248Z,3.20
2023-04-15T00:50:03.089Z,2.65
2023-04-15T00:52:29.693Z,2.83
2023-04-15T00:54:56.209Z,2.63
2023-04-15T00:57:22.874Z,3.25
2023-04-15T00:59:49.724Z,2.92
2023-04-15T01:02:16.655Z,3.28
2023-04-15T01:04:43.282Z,3.15
2023-04-15T01:07:09.775Z,3.75
2023-04-15T01:09:36.547Z,3.38
2023-04-15T01:12:03.665Z,3.10
2023-04-15T01:14:30.432Z,2.88
2023-04-15T01:16:56.942Z,3.10
2023-04-15T01:19:23.434Z,2.22
2023-04-15T01:21:50.015Z,4.70
2023-04-15T01:24:18.149Z,3.67
2023-04-15T01:26:45.182Z,3.33
2023-04-15T01:29:12.095Z,3.28
2023-04-15T01:31:38.909Z,3.45
2023-04-15T01:34:05.430Z,3.58
2023-04-15T01:36:31.950Z,3.58
2023-04-15T01:38:58.635Z,3.30
2023-04-15T01:41:26.881Z,3.50
2023-04-15T01:43:53.719Z,3.10
2023-04-15T01:46:20.279Z,3.40
2023-04-15T01:48:46.890Z,3.38
2023-04-15T01:51:13.430Z,3.78
2023-04-15T01:53:39.923Z,4.30
2023-04-15T01:56:06.860Z,3.35
2023-04-15T01:58:33.474Z,3.22
2023-04-15T02:01:00.093Z,3.55
2023-04-15T02:03:26.786Z,4.57
2023-04-15T02:05:53.339Z,3.55
2023-04-15T02:08:19.826Z,3.40
2023-04-15T02:10:46.459Z,3.42
2023-04-15T02:13:12.971Z,3.28
2023-04-15T02:15:39.500Z,3.65
2023-04-15T02:18:06.015Z,4.45
2023-04-15T02:20:32.568Z,3.53
2023-04-15T02:22:59.073Z,3.53
2023-04-15T02:25:25.551Z,3.33
2023-04-15T02:27:52.042Z,3.47
2023-04-15T02:30:18.699Z,3.33
2023-04-15T02:32:46.044Z,3.40
2023-04-15T02:35:12.603Z,3.70
2023-04-15T02:37:39.101Z,3.13
2023-04-15T02:40:14.741Z,3.65
2023-04-15T02:42:41.796Z,2.90
2023-04-15T02:45:08.987Z,2.53
2023-04-15T02:47:35.895Z,3.10
2023-04-15T02:50:07.667Z,3.33
2023-04-15T02:52:34.170Z,3.55
2023-04-15T02:55:00.732Z,3.33
2023-04-15T02:57:28.076Z,2.90
2023-04-15T02:59:54.635Z,2.97
2023-04-15T03:02:21.262Z,3.38
2023-04-15T03:04:47.830Z,3.33
2023-04-15T03:07:14.386Z,3.60
2023-04-15T03:09:40.928Z,3.60
2023-04-15T03:12:07.525Z,3.40
2023-04-15T03:14:34.071Z,3.58
2023-04-15T03:17:00.577Z,3.47
2023-04-15T03:19:27.059Z,3.33
2023-04-15T03:21:53.526Z,3.05
2023-04-15T03:24:20.407Z,3.33
2023-04-15T03:26:46.894Z,3.58
2023-04-15T03:29:13.418Z,3.72
2023-04-15T03:31:39.991Z,3.10
2023-04-15T03:34:06.555Z,3.65
2023-04-15T03:36:33.124Z,3.33
2023-04-15T03:38:59.917Z,3.20
2023-04-15T03:41:26.556Z,3.30
2023-04-15T03:43:53.014Z,3.38
2023-04-15T03:46:19.740Z,3.05
2023-04-15T03:48:47.170Z,3.00
2023-04-15T03:51:13.666Z,3.03
2023-04-15T03:53:40.152Z,3.15
2023-04-15T03:56:06.974Z,3.17
2023-04-15T03:58:33.501Z,2.75
2023-04-15T04:00:59.971Z,3.25
2023-04-15T04:03:26.576Z,2.63
2023-04-15T04:05:53.524Z,3.00
2023-04-15T04:08:20.022Z,3.10
2023-04-15T04:10:46.506Z,3.63
2023-04-15T04:13:12.990Z,3.05
2023-04-15T04:15:39.505Z,3.28
2023-04-15T04:18:06.132Z,3.20
2023-04-15T04:20:33.259Z,3.70
2023-04-15T04:22:59.728Z,2.80
2023-04-15T04:25:26.214Z,3.33
2023-04-15T04:27:52.738Z,3.10
2023-04-15T04:30:19.304Z,3.83
2023-04-15T04:32:45.862Z,3.40
2023-04-15T04:35:12.403Z,3.63
2023-04-15T04:37:38.867Z,4.13
2023-04-15T04:40:06.119Z,4.20
2023-04-15T04:42:32.689Z,2.65
2023-04-15T04:44:59.177Z,3.22
2023-04-15T04:47:25.707Z,3.38
2023-04-15T04:49:52.257Z,3.45
2023-04-15T04:52:18.788Z,2.92
2023-04-15T04:54:45.305Z,3.17
2023-04-15T04:57:11.862Z,3.10
2023-04-15T04:59:38.368Z,3.97
2023-04-15T05:02:05.148Z,3.60
2023-04-15T05:04:31.747Z,3.22
2023-04-15T05:06:58.478Z,3.08
2023-04-15T05:09:25.063Z,2.75
2023-04-15T05:11:51.599Z,2.88
2023-04-15T05:14:18.082Z,3.30
2023-04-15T05:16:44.533Z,3.47
2023-04-15T05:19:11.010Z,3.20
2023-04-15T05:21:39.412Z,3.33
2023-04-15T05:24:06.385Z,3.28
2023-04-15T05:26:32.935Z,3.30
2023-04-15T05:28:59.547Z,3.63
2023-04-15T05:31:26.263Z,4.07
2023-04-15T05:33:52.921Z,3.15
2023-04-15T05:36:19.395Z,3.60
2023-04-15T05:38:45.900Z,3.38
2023-04-15T05:41:12.521Z,3.58
2023-04-15T05:43:39.109Z,3.40
2023-04-15T05:46:05.621Z,3.25
2023-04-15T05:48:32.125Z,3.50
2023-04-15T05:50:58.701Z,3.30
2023-04-15T05:53:25.227Z,4.07
2023-04-15T05:55:51.895Z,3.83
2023-04-15T05:58:18.589Z,5.00
2023-04-15T06:00:45.198Z,4.10
2023-04-15T06:03:11.985Z,4.68
2023-04-15T06:05:38.659Z,5.35
2023-04-15T06:08:05.373Z,4.63
2023-04-15T06:10:31.973Z,5.07
2023-04-15T06:12:58.493Z,4.72
2023-04-15T06:15:24.981Z,5.13
2023-04-15T06:17:51.492Z,4.60
2023-04-15T06:20:18.086Z,4.03
2023-04-15T06:22:44.620Z,4.68
2023-04-15T06:25:11.119Z,4.03
2023-04-15T06:27:37.777Z,4.20
2023-04-15T06:30:04.887Z,4.82
2023-04-15T06:32:32.729Z,4.90
2023-04-15T06:34:59.236Z,5.30
2023-04-15T06:37:25.952Z,4.35
2023-04-15T06:39:52.446Z,4.57
2023-04-15T06:42:18.973Z,4.60
2023-04-15T06:44:45.534Z,5.18
2023-04-15T06:47:12.000Z,5.13
2023-04-15T06:49:38.557Z,4.72
2023-04-15T06:52:05.124Z,4.35
2023-04-15T06:54:31.747Z,5.25
2023-04-15T06:56:58.245Z,5.15
2023-04-15T06:59:24.812Z,4.22
2023-04-15T07:01:51.399Z,5.72
2023-04-15T07:04:18.028Z,5.60
2023-04-15T07:06:44.574Z,4.97
2023-04-15T07:09:11.195Z,5.22
2023-04-15T07:11:37.714Z,5.53
2023-04-15T07:14:04.252Z,5.15
2023-04-15T07:16:30.829Z,5.25
2023-04-15T07:18:57.344Z,5.35
2023-04-15T07:21:24.920Z,5.13
2023-04-15T07:23:51.402Z,6.15
2023-04-15T07:26:17.891Z,5.57
2023-04-15T07:28:44.458Z,6.18
2023-04-15T07:31:11.068Z,6.32
2023-04-15T07:33:37.614Z,6.13
2023-04-15T07:36:04.280Z,6.50
2023-04-15T07:38:30.750Z,7.80
2023-04-15T07:40:57.302Z,6.60
2023-04-15T07:43:23.771Z,7.07
2023-04-15T07:45:50.344Z,7.00
2023-04-15T07:48:16.839Z,7.05
2023-04-15T07:50:43.317Z,7.03
2023-04-15T07:53:09.861Z,8.18
2023-04-15T07:55:36.334Z,6.18
2023-04-15T07:58:02.813Z,7.97
2023-04-15T08:00:29.354Z,7.88
2023-04-15T08:02:57.184Z,7.65
2023-04-15T08:05:23.884Z,6.50
2023-04-15T08:07:50.375Z,7.10
2023-04-15T08:10:16.949Z,6.18
2023-04-15T08:12:43.505Z,6.15
2023-04-15T08:15:10.413Z,6.43
2023-04-15T08:17:36.969Z,6.43
2023-04-15T08:20:04.013Z,6.28
2023-04-15T08:22:30.542Z,6.63
2023-04-15T08:24:57.018Z,6.47
2023-04-15T08:27:23.545Z,5.50
2023-04-15T08:29:50.078Z,5.05
2023-04-15T08:32:16.580Z,4.65
2023-04-15T08:34:43.102Z,4.95
2023-04-15T08:37:10.872Z,4.55
2023-04-15T08:39:38.006Z,3.80
2023-04-15T08:42:11.354Z,4.10
2023-04-15T08:44:38.447Z,4.47
2023-04-15T08:47:08.146Z,4.13
2023-04-15T08:49:40.023Z,4.25
2023-04-15T08:52:06.960Z,4.63
2023-04-15T08:54:34.636Z,4.28
2023-04-15T08:57:01.706Z,4.00
2023-04-15T08:59:30.498Z,4.30
2023-04-15T09:01:58.196Z,3.75
2023-04-15T09:04:24.826Z,3.95
2023-04-15T09:06:53.380Z,3.90
2023-04-15T09:09:19.943Z,4.30
2023-04-15T09:11:46.626Z,4.10
2023-04-15T09:14:13.210Z,4.70
2023-04-15T09:17:02.531Z,4.18
2023-04-15T09:19:30.403Z,4.70
2023-04-15T09:21:59.266Z,4.65
2023-04-15T09:24:33.767Z,4.70
2023-04-15T09:27:00.544Z,4.88
2023-04-15T09:29:27.111Z,4.95
2023-04-15T09:31:53.743Z,4.85
2023-04-15T09:34:20.698Z,4.30
2023-04-15T09:36:48.616Z,5.53
2023-04-15T09:39:17.237Z,4.97
2023-04-15T09:41:45.941Z,5.30
2023-04-15T09:44:25.729Z,4.47
2023-04-15T09:46:52.456Z,5.15
2023-04-15T09:49:18.993Z,5.13
2023-04-15T09:51:57.578Z,5.45
2023-04-15T09:54:38.493Z,5.60
2023-04-15T09:57:09.876Z,5.65
2023-04-15T09:59:36.660Z,5.65
2023-04-15T10:02:06.611Z,5.78
2023-04-15T10:04:39.930Z,5.97
2023-04-15T10:07:09.977Z,4.95
2023-04-15T10:09:38.241Z,5.10
2023-04-15T10:12:05.496Z,4.85
2023-04-15T10:14:35.484Z,4.97
2023-04-15T10:17:03.973Z,3.70
2023-04-15T10:19:36.289Z,1.92
2023-04-15T10:22:03.371Z,2.40
2023-04-15T10:24:33.717Z,2.63
2023-04-15T10:27:00.646Z,2.83
2023-04-15T10:29:27.183Z,2.90
2023-04-15T10:31:55.852Z,2.80
2023-04-15T10:34:24.600Z,2.95
2023-04-15T10:36:51.411Z,3.20
2023-04-15T10:39:36.539Z,4.22
2023-04-15T10:42:17.354Z,3.97
2023-04-15T10:44:48.347Z,2.80
2023-04-15T10:47:19.204Z,3.15
2023-04-15T10:49:59.587Z,2.33
2023-04-15T10:52:27.971Z,5.03
2023-04-15T10:55:25.181Z,2.78
2023-04-15T10:57:53.622Z,2.00
2023-04-15T11:00:24.965Z,2.97
2023-04-15T11:03:06.106Z,2.97
2023-04-15T11:05:41.773Z,2.88
2023-04-15T11:08:09.704Z,2.90
2023-04-15T11:10:36.170Z,2.67
2023-04-15T11:13:03.978Z,2.40
2023-04-15T11:15:34.998Z,2.72
2023-04-15T11:18:16.747Z,2.88
2023-04-15T11:20:50.998Z,2.92
2023-04-15T11:23:38.569Z,2.85
2023-04-15T11:26:07.628Z,2.60
2023-04-15T11:28:34.190Z,4.63
2023-04-15T11:31:12.265Z,14.10
2023-04-15T11:33:47.575Z,5.05
2023-04-15T11:36:14.176Z,3.00
2023-04-15T11:38:44.170Z,3.20
2023-04-15T11:41:11.176Z,2.42
2023-04-15T11:43:37.706Z,2.78
2023-04-15T11:46:04.335Z,2.78
2023-04-15T11:48:35.802Z,3.05
2023-04-15T11:51:06.940Z,3.10
2023-04-15T11:53:44.706Z,3.67
2023-04-15T11:56:17.436Z,3.00
2023-04-15T11:58:44.037Z,3.78
2023-04-15T12:01:10.533Z,3.53
2023-04-15T12:03:39.505Z,3.25
2023-04-15T12:06:09.997Z,3.28
2023-04-15T12:08:52.537Z,2.33
2023-04-15T12:11:20.401Z,2.35
2023-04-15T12:13:50.391Z,2.55
2023-04-15T12:16:18.203Z,3.00
2023-04-15T12:18:50.966Z,3.50
2023-04-15T12:21:20.388Z,2.72
2023-04-15T12:23:50.891Z,3.13
2023-04-15T12:26:18.323Z,3.53
2023-04-15T12:28:45.047Z,3.00
2023-04-15T12:31:12.186Z,2.92
2023-04-15T12:33:38.978Z,2.95
2023-04-15T12:36:05.801Z,2.88
2023-04-15T12:38:32.266Z,3.10
2023-04-15T12:40:59.124Z,2.65
2023-04-15T12:43:25.644Z,2.35
2023-04-15T12:45:52.208Z,2.60
2023-04-15T12:48:18.744Z,2.33
2023-04-15T12:50:45.279Z,2.20
2023-04-15T12:53:11.799Z,2.45
2023-04-15T12:55:38.270Z,2.08
2023-04-15T12:58:04.746Z,2.10
2023-04-15T13:00:34.308Z,3.67
2023-04-15T13:05:27.316Z,2.40
2023-04-15T13:07:53.865Z,2.00
2023-04-15T13:10:20.350Z,2.40
2023-04-15T13:12:48.452Z,1.58
2023-04-15T13:15:14.917Z,2.08
2023-04-15T13:17:41.483Z,2.20
2023-04-15T13:20:08.229Z,1.75
2023-04-15T13:22:34.797Z,2.20
2023-04-15T13:25:01.275Z,1.80
2023-04-15T13:27:27.785Z,1.95
2023-04-15T13:29:54.839Z,2.08
2023-04-15T13:32:21.402Z,2.22
2023-04-15T13:34:47.955Z,2.50
2023-04-15T13:37:14.505Z,2.17
2023-04-15T13:39:40.993Z,2.40
2023-04-15T13:42:07.529Z,3.35
2023-04-15T13:44:34.251Z,2.35
2023-04-15T13:47:00.823Z,2.35
2023-04-15T13:49:27.321Z,2.25
2023-04-15T13:51:53.781Z,2.13
2023-04-15T13:54:20.280Z,2.45
2023-04-15T13:56:46.792Z,2.10
2023-04-15T13:59:13.263Z,1.65
2023-04-15T14:01:39.867Z,1.90
2023-04-15T14:04:06.858Z,1.42
2023-04-15T14:06:33.645Z,1.65
2023-04-15T14:09:00.171Z,1.75
2023-04-15T14:11:26.730Z,1.80
2023-04-15T14:13:53.270Z,1.67
2023-04-15T14:16:19.822Z,1.63
2023-04-15T14:18:46.400Z,1.55
2023-04-15T14:21:13.128Z,1.80
2023-04-15T14:23:40.711Z,1.65
2023-04-15T14:26:07.733Z,2.58
2023-04-15T14:28:34.216Z,3.60
2023-04-15T14:31:00.909Z,2.60
2023-04-15T14:33:27.444Z,3.25
2023-04-15T14:35:53.969Z,3.22
2023-04-15T14:38:20.525Z,2.20
2023-04-15T14:40:46.985Z,2.08
2023-04-15T14:43:13.752Z,2.13
2023-04-15T14:45:42.244Z,2.47
2023-04-15T14:48:11.024Z,2.25
2023-04-15T14:50:37.694Z,1.95
2023-04-15T14:53:04.192Z,2.30
2023-04-15T14:55:30.678Z,2.30
2023-04-15T14:57:57.197Z,1.88
2023-04-15T15:00:23.778Z,2.10
2023-04-15T15:02:50.336Z,1.67
2023-04-15T15:05:17.016Z,1.35
2023-04-15T15:07:43.611Z,1.60
2023-04-15T15:10:10.277Z,1.55
2023-04-15T15:12:36.787Z,2.03
2023-04-15T15:15:12.353Z,1.90
2023-04-15T15:17:46.263Z,1.88
2023-04-15T15:20:12.842Z,1.50
2023-04-15T15:22:39.351Z,1.33
2023-04-15T15:25:06.162Z,1.25
2023-04-15T15:27:32.695Z,3.65
2023-04-15T15:29:59.626Z,1.20
2023-04-15T15:32:26.264Z,1.40
2023-04-15T15:34:52.733Z,1.52
2023-04-15T15:37:19.254Z,1.58
2023-04-15T15:39:45.828Z,1.30
2023-04-15T15:42:12.349Z,1.45
2023-04-15T15:44:38.817Z,1.45
2023-04-15T15:47:08.350Z,1.40
2023-04-15T15:49:34.862Z,1.50
2023-04-15T15:52:01.336Z,1.70
2023-04-15T15:54:27.831Z,1.70
2023-04-15T15:56:54.418Z,1.58
2023-04-15T15:59:20.956Z,1.90
2023-04-15T16:01:47.579Z,1.48
2023-04-15T16:04:14.403Z,1.55
2023-04-15T16:06:41.117Z,1.50
2023-04-15T16:09:07.675Z,1.95
2023-04-15T16:11:34.258Z,1.63
2023-04-15T16:14:00.795Z,1.50
2023-04-15T16:16:27.371Z,1.80
2023-04-15T16:18:54.122Z,1.55
2023-04-15T16:21:20.658Z,1.50
2023-04-15T16:23:47.404Z,1.38
2023-04-15T16:26:13.918Z,1.30
2023-04-15T16:28:40.401Z,1.58
2023-04-15T16:31:06.957Z,1.75
2023-04-15T16:33:33.557Z,2.03
2023-04-15T16:36:00.052Z,1.40
2023-04-15T16:38:26.607Z,1.30
2023-04-15T16:40:53.527Z,1.20
2023-04-15T16:43:20.149Z,1.70
2023-04-15T16:45:46.757Z,1.45
2023-04-15T16:48:13.325Z,1.70
2023-04-15T16:50:39.808Z,1.33
2023-04-15T16:53:06.343Z,4.03
2023-04-15T16:55:32.822Z,2.60
2023-04-15T16:58:02.418Z,1.65
2023-04-15T17:00:30.995Z,1.70
2023-04-15T17:02:58.123Z,1.42
2023-04-15T17:05:24.805Z,1.40
2023-04-15T17:07:51.359Z,1.30
2023-04-15T17:10:17.872Z,2.40
2023-04-15T17:12:44.652Z,1.30
2023-04-15T17:15:11.191Z,1.35
2023-04-15T17:17:37.806Z,1.50
2023-04-15T17:20:04.650Z,1.25
2023-04-15T17:22:31.211Z,1.20
2023-04-15T17:24:57.699Z,1.15
2023-04-15T17:27:24.220Z,1.40
2023-04-15T17:29:50.748Z,1.40
2023-04-15T17:32:17.302Z,1.10
2023-04-15T17:34:49.913Z,0.93
2023-04-15T17:37:18.145Z,1.20
2023-04-15T17:39:44.683Z,1.20
2023-04-15T17:42:11.702Z,1.42
2023-04-15T17:44:38.523Z,1.77
2023-04-15T17:47:05.098Z,1.60
2023-04-15T17:49:31.683Z,1.42
2023-04-15T17:51:58.177Z,1.20
2023-04-15T17:54:24.630Z,1.40
2023-04-15T17:56:51.146Z,1.20
2023-04-15T17:59:18.024Z,1.27
2023-04-15T18:01:44.551Z,1.45
2023-04-15T18:04:12.102Z,1.30
2023-04-15T18:06:39.228Z,1.23
2023-04-15T18:09:07.112Z,1.60
2023-04-15T18:11:33.705Z,1.63
2023-04-15T18:14:02.927Z,1.70
2023-04-15T18:16:29.781Z,1.70
2023-04-15T18:18:56.299Z,1.40
2023-04-15T18:21:22.931Z,1.23
2023-04-15T18:23:49.437Z,1.52
2023-04-15T18:26:16.083Z,1.50
2023-04-15T18:28:42.618Z,1.17
2023-04-15T18:31:09.243Z,1.40
2023-04-15T18:33:35.820Z,1.20
2023-04-15T18:36:02.492Z,1.33
2023-04-15T18:38:29.034Z,1.40
2023-04-15T18:40:55.610Z,1.25
2023-04-15T18:43:22.161Z,1.63
2023-04-15T18:45:48.730Z,1.40
2023-04-15T18:48:15.281Z,1.52
2023-04-15T18:50:43.060Z,1.65
2023-04-15T18:53:09.643Z,2.28
2023-04-15T18:55:36.261Z,8.02
2023-04-15T18:58:06.401Z,3.00
2023-04-15T19:00:35.753Z,4.13
2023-04-15T19:03:02.335Z,3.67
2023-04-15T19:05:29.927Z,2.97
2023-04-15T19:07:57.913Z,2.03
2023-04-15T19:10:25.683Z,2.40
2023-04-15T19:12:52.209Z,2.08
2023-04-15T19:15:18.795Z,1.70
2023-04-15T19:17:45.359Z,2.35
2023-04-15T19:20:11.915Z,1.85
2023-04-15T19:22:38.471Z,1.67
2023-04-15T19:25:06.133Z,1.63
2023-04-15T19:27:32.799Z,2.03
2023-04-15T19:29:59.346Z,1.67
2023-04-15T19:32:25.904Z,1.73
2023-04-15T19:34:52.480Z,2.33
2023-04-15T19:37:19.028Z,1.73
2023-04-15T19:39:45.552Z,1.98
2023-04-15T19:42:12.125Z,1.83
2023-04-15T19:44:38.644Z,1.83
2023-04-15T19:47:05.177Z,1.88
2023-04-15T19:49:31.739Z,2.88
2023-04-15T19:51:58.241Z,2.60
2023-04-15T19:54:24.821Z,1.92
2023-04-15T19:56:51.317Z,1.90
2023-04-15T19:59:17.842Z,3.40
2023-04-15T20:01:44.580Z,3.97
2023-04-15T20:04:11.294Z,4.00
2023-04-15T20:06:37.980Z,3.33
2023-04-15T20:09:04.651Z,3.03
2023-04-15T20:12:44.960Z,3.00
2023-04-15T20:14:17.913Z,4.18
2023-04-15T20:16:44.450Z,3.60
2023-04-15T20:19:10.967Z,2.55
2023-04-15T20:21:38.782Z,2.55
2023-04-15T20:24:05.727Z,2.72
2023-04-15T20:26:32.456Z,4.38
2023-04-15T20:28:59.214Z,1.90
2023-04-15T20:31:26.028Z,2.53
2023-04-15T20:33:53.106Z,7.55
2023-04-15T20:36:19.726Z,3.17
2023-04-15T20:38:46.332Z,3.15
2023-04-15T20:41:12.872Z,2.78
2023-04-15T20:43:39.413Z,2.70
2023-04-15T20:46:19.807Z,2.97
2023-04-15T20:51:14.256Z,3.33
2023-04-15T20:53:40.877Z,3.83
2023-04-15T20:56:07.643Z,2.90
2023-04-15T20:58:34.130Z,2.53
2023-04-15T21:01:00.801Z,4.05
2023-04-15T21:03:27.685Z,4.07
2023-04-15T21:05:54.295Z,3.45
2023-04-15T21:08:20.828Z,2.97
2023-04-15T21:10:47.315Z,3.72
2023-04-15T21:13:13.840Z,3.00
2023-04-15T21:15:40.374Z,3.40
2023-04-15T21:18:06.873Z,3.33
2023-04-15T21:20:33.372Z,3.50
2023-04-15T21:22:59.863Z,3.42
2023-04-15T21:25:26.337Z,3.22
2023-04-15T21:27:52.830Z,3.97
2023-04-15T21:30:19.389Z,4.38
2023-04-15T21:32:45.929Z,4.15
2023-04-15T21:35:12.529Z,3.58
2023-04-15T21:37:39.088Z,3.65
2023-04-15T21:40:06.250Z,4.15
2023-04-15T21:42:32.829Z,3.80
2023-04-15T21:44:59.610Z,3.97
2023-04-15T21:47:26.139Z,3.90
2023-04-15T21:49:52.722Z,4.55
2023-04-15T21:52:19.200Z,4.53
2023-04-15T21:54:45.741Z,4.35
2023-04-15T21:57:12.345Z,4.55
2023-04-15T21:59:38.850Z,5.05
2023-04-15T22:02:05.466Z,5.45
2023-04-15T22:04:31.977Z,4.95
2023-04-15T22:06:58.494Z,4.60
2023-04-15T22:09:25.070Z,4.45
2023-04-15T22:11:51.611Z,4.20
2023-04-15T22:14:18.126Z,5.75
2023-04-15T22:16:44.702Z,6.00
2023-04-15T22:19:11.250Z,5.95
2023-04-15T22:21:37.763Z,5.40
2023-04-15T22:24:37.280Z,5.07
2023-04-15T22:26:51.097Z,4.88
2023-04-15T22:29:17.611Z,4.78
2023-04-15T22:31:44.254Z,5.20
2023-04-15T22:34:10.976Z,5.30
2023-04-15T22:36:37.443Z,5.00
2023-04-15T22:39:04.220Z,5.60
2023-04-15T22:41:30.849Z,5.57
2023-04-15T22:43:57.364Z,5.47
2023-04-15T22:46:23.917Z,4.97
2023-04-15T22:48:50.423Z,4.72
2023-04-15T22:51:21.988Z,5.18
2023-04-15T22:53:48.934Z,4.63
2023-04-15T22:56:17.969Z,4.60
2023-04-15T22:58:44.517Z,5.13
2023-04-15T23:01:11.064Z,4.88
2023-04-15T23:03:57.178Z,5.00
2023-04-15T23:06:24.163Z,5.35
2023-04-15T23:08:51.012Z,5.35
2023-04-15T23:11:17.580Z,5.40
2023-04-15T23:13:44.141Z,5.22
2023-04-15T23:16:10.794Z,5.60
2023-04-15T23:18:37.278Z,5.35
2023-04-15T23:21:04.105Z,4.95
2023-04-15T23:23:30.591Z,4.43
2023-04-15T23:25:57.113Z,5.55
2023-04-15T23:28:23.739Z,5.00
2023-04-15T23:30:50.250Z,5.15
2023-04-15T23:33:16.757Z,4.90
2023-04-15T23:35:43.248Z,5.07
2023-04-15T23:38:09.761Z,5.85
2023-04-15T23:40:36.258Z,6.18
2023-04-15T23:43:02.768Z,6.65
2023-04-15T23:45:29.222Z,4.60
2023-04-15T23:47:55.748Z,5.40
2023-04-15T23:50:22.300Z,5.05
2023-04-15T23:52:48.793Z,5.60
2023-04-15T23:55:15.358Z,5.43
2023-04-15T23:57:41.882Z,5.18
